createdAt,value
2016-12-02T00:00:50.222Z,99.99
2016-12-02T00:01:50.260Z,99.99
2016-12-02T00:02:50.463Z,99.99
2016-12-02T00:03:50.327Z,99.99
2016-12-02T00:04:50.278Z,99.99
2016-12-02T00:05:50.277Z,99.99
2016-12-02T00:06:50.242Z,99.99
2016-12-02T00:07:50.262Z,99.99
2016-12-02T00:08:50.395Z,99.99
2016-12-02T00:09:50.272Z,99.99
2016-12-02T00:10:50.315Z,99.99
2016-12-02T00:11:50.348Z,99.99
2016-12-02T00:12:50.245Z,99.99
2016-12-02T00:13:50.382Z,99.99
2016-12-02T00:14:50.277Z,99.99
2016-12-02T00:15:50.374Z,99.99
2016-12-02T00:16:50.234Z,99.99
2016-12-02T00:17:50.801Z,99.99
2016-12-02T00:18:50.359Z,99.99
2016-12-02T00:19:50.403Z,99.99
2016-12-02T00:20:50.246Z,99.99
2016-12-02T00:21:50.262Z,99.99
2016-12-02T00:22:50.264Z,99.99
2016-12-02T00:23:51.228Z,99.99
2016-12-02T00:24:50.243Z,99.99
2016-12-02T00:25:50.242Z,99.99
2016-12-02T00:26:50.293Z,99.99
2016-12-02T00:27:50.248Z,99.99
2016-12-02T00:28:50.266Z,99.99
2016-12-02T00:29:50.298Z,99.99
2016-12-02T00:30:50.265Z,99.99
2016-12-02T00:31:50.250Z,99.99
2016-12-02T00:32:50.274Z,99.99
2016-12-02T00:33:50.225Z,99.99
2016-12-02T00:34:50.268Z,99.99
2016-12-02T00:35:50.241Z,99.99
2016-12-02T00:36:50.273Z,99.99
2016-12-02T00:37:50.279Z,99.99
2016-12-02T00:38:50.296Z,99.99
2016-12-02T00:39:50.380Z,99.99
2016-12-02T00:40:51.025Z,99.99
2016-12-02T00:41:50.286Z,99.99
2016-12-02T00:42:50.271Z,99.99
2016-12-02T00:43:50.272Z,99.99
2016-12-02T00:44:50.283Z,99.99
2016-12-02T00:45:50.283Z,99.99
2016-12-02T00:46:50.276Z,99.99
2016-12-02T00:47:50.270Z,99.99
2016-12-02T00:48:50.376Z,99.99
2016-12-02T00:49:50.290Z,99.99
2016-12-02T00:50:50.275Z,99.99
2016-12-02T00:51:50.284Z,99.99
2016-12-02T00:52:50.268Z,99.99
2016-12-02T00:53:50.285Z,99.99
2016-12-02T00:54:50.436Z,99.99
2016-12-02T00:55:50.295Z,99.99
2016-12-02T00:56:50.275Z,99.99
2016-12-02T00:57:50.303Z,99.99
2016-12-02T00:58:50.302Z,99.99
2016-12-02T00:59:50.352Z,99.99
2016-12-02T01:00:50.291Z,99.99
2016-12-02T01:01:50.286Z,99.99
2016-12-02T01:02:50.317Z,99.99
2016-12-02T01:03:50.262Z,99.99
2016-12-02T01:04:50.330Z,99.99
2016-12-02T01:05:50.294Z,99.99
2016-12-02T01:06:50.283Z,99.99
2016-12-02T01:07:50.332Z,99.99
2016-12-02T01:08:50.305Z,99.99
2016-12-02T01:09:50.328Z,99.99
2016-12-02T01:10:50.280Z,99.99
2016-12-02T01:11:50.309Z,99.99
2016-12-02T01:12:50.293Z,99.99
2016-12-02T01:13:50.275Z,99.99
2016-12-02T01:14:50.286Z,99.99
2016-12-02T01:15:50.298Z,99.99
2016-12-02T01:16:50.519Z,99.99
2016-12-02T01:17:50.299Z,99.99
2016-12-02T01:18:50.285Z,99.99
2016-12-02T01:19:50.301Z,99.99
2016-12-02T01:20:50.301Z,99.99
2016-12-02T01:21:50.303Z,99.99
2016-12-02T01:22:50.308Z,99.99
2016-12-02T01:23:50.303Z,99.99
2016-12-02T01:24:52.396Z,99.99
2016-12-02T01:25:50.316Z,99.99
2016-12-02T01:26:50.357Z,99.99
2016-12-02T01:27:50.318Z,99.99
2016-12-02T01:28:50.332Z,99.99
2016-12-02T01:29:50.285Z,99.99
2016-12-02T01:30:50.327Z,99.99
2016-12-02T01:31:50.327Z,99.99
2016-12-02T01:32:50.295Z,99.99
2016-12-02T01:33:50.316Z,99.99
2016-12-02T01:34:50.325Z,99.99
2016-12-02T01:35:50.316Z,99.99
2016-12-02T01:36:50.325Z,99.99
2016-12-02T01:37:50.317Z,99.99
2016-12-02T01:38:50.373Z,99.99
2016-12-02T01:39:50.315Z,99.99
2016-12-02T01:40:50.326Z,99.99
2016-12-02T01:41:50.313Z,99.99
2016-12-02T01:42:50.344Z,99.99
2016-12-02T01:43:50.328Z,99.99
2016-12-02T01:44:50.345Z,99.99
2016-12-02T01:45:50.304Z,99.99
2016-12-02T01:46:50.343Z,99.99
2016-12-02T01:47:50.316Z,99.99
2016-12-02T01:48:50.322Z,99.99
2016-12-02T01:49:50.355Z,99.99
2016-12-02T01:50:50.354Z,99.99
2016-12-02T01:51:50.340Z,99.97
2016-12-02T01:52:50.329Z,99.99
2016-12-02T01:53:50.322Z,99.99
2016-12-02T01:54:50.347Z,99.99
2016-12-02T01:55:50.369Z,99.99
2016-12-02T01:56:50.355Z,99.99
2016-12-02T01:57:50.339Z,99.99
2016-12-02T01:58:50.345Z,99.99
2016-12-02T01:59:50.347Z,99.99
2016-12-02T02:00:50.327Z,99.99
2016-12-02T02:01:50.340Z,99.99
2016-12-02T02:02:50.358Z,99.99
2016-12-02T02:03:50.353Z,99.99
2016-12-02T02:04:50.346Z,99.99
2016-12-02T02:05:51.161Z,99.99
2016-12-02T02:06:50.356Z,99.99
2016-12-02T02:07:50.375Z,99.99
2016-12-02T02:08:50.343Z,99.99
2016-12-02T02:09:50.346Z,99.99
2016-12-02T02:10:50.397Z,99.99
2016-12-02T02:11:50.366Z,99.99
2016-12-02T02:12:50.359Z,99.99
2016-12-02T02:13:50.374Z,99.99
2016-12-02T02:14:50.396Z,99.99
2016-12-02T02:15:50.377Z,99.99
2016-12-02T02:16:50.392Z,99.99
2016-12-02T02:17:50.367Z,99.99
2016-12-02T02:18:50.398Z,99.99
2016-12-02T02:19:50.346Z,99.99
2016-12-02T02:20:50.397Z,99.99
2016-12-02T02:21:50.392Z,99.99
2016-12-02T02:22:50.362Z,99.99
2016-12-02T02:23:50.361Z,99.99
2016-12-02T02:24:50.378Z,99.99
2016-12-02T02:25:50.407Z,99.99
2016-12-02T02:26:50.399Z,99.99
2016-12-02T02:27:50.381Z,99.99
2016-12-02T02:28:50.387Z,99.99
2016-12-02T02:29:50.402Z,99.99
2016-12-02T02:30:50.376Z,99.99
2016-12-02T02:31:50.417Z,99.99
2016-12-02T02:32:50.347Z,99.99
2016-12-02T02:33:50.376Z,99.99
2016-12-02T02:34:50.404Z,99.99
2016-12-02T02:35:50.416Z,99.99
2016-12-02T02:36:50.395Z,99.99
2016-12-02T02:37:50.385Z,99.99
2016-12-02T02:38:50.386Z,99.99
2016-12-02T02:39:50.400Z,99.99
2016-12-02T02:40:50.396Z,99.99
2016-12-02T02:41:50.397Z,99.99
2016-12-02T02:42:50.399Z,99.99
2016-12-02T02:43:50.416Z,99.99
2016-12-02T02:44:50.394Z,99.99
2016-12-02T02:45:50.426Z,99.99
2016-12-02T02:46:50.466Z,99.99
2016-12-02T02:47:50.437Z,99.99
2016-12-02T02:48:50.569Z,99.99
2016-12-02T02:49:50.495Z,99.99
2016-12-02T02:50:50.495Z,99.99
2016-12-02T02:51:50.511Z,99.99
2016-12-02T02:52:50.526Z,99.99
2016-12-02T02:53:50.540Z,99.99
2016-12-02T02:54:50.512Z,99.99
2016-12-02T02:55:50.557Z,99.99
2016-12-02T02:56:50.639Z,99.99
2016-12-02T02:57:50.544Z,99.99
2016-12-02T02:58:50.561Z,99.99
2016-12-02T02:59:50.493Z,99.99
2016-12-02T03:00:50.688Z,99.99
2016-12-02T03:01:50.612Z,99.99
2016-12-02T03:02:50.603Z,99.99
2016-12-02T03:03:50.578Z,99.99
2016-12-02T03:04:50.643Z,99.99
2016-12-02T03:05:50.476Z,99.99
2016-12-02T03:06:50.692Z,99.99
2016-12-02T03:07:50.498Z,99.99
2016-12-02T03:08:50.592Z,99.99
2016-12-02T03:09:50.561Z,99.99
2016-12-02T03:10:50.559Z,99.99
2016-12-02T03:11:50.482Z,99.99
2016-12-02T03:12:50.705Z,99.99
2016-12-02T03:13:50.614Z,99.99
2016-12-02T03:14:50.625Z,99.99
2016-12-02T03:15:50.472Z,99.99
2016-12-02T03:16:50.636Z,99.99
2016-12-02T03:17:50.496Z,99.99
2016-12-02T03:18:50.549Z,99.99
2016-12-02T03:19:50.574Z,99.99
2016-12-02T03:20:50.677Z,99.99
2016-12-02T03:21:50.517Z,99.99
2016-12-02T03:22:50.442Z,99.99
2016-12-02T03:23:50.555Z,99.99
2016-12-02T03:24:50.736Z,99.99
2016-12-02T03:25:50.486Z,99.99
2016-12-02T03:26:50.573Z,99.99
2016-12-02T03:27:50.510Z,99.99
2016-12-02T03:28:50.603Z,99.99
2016-12-02T03:29:50.516Z,99.99
2016-12-02T03:30:50.582Z,99.99
2016-12-02T03:31:50.613Z,99.99
2016-12-02T03:32:50.693Z,99.99
2016-12-02T03:33:50.511Z,99.99
2016-12-02T03:34:50.623Z,99.99
2016-12-02T03:35:50.532Z,99.99
2016-12-02T03:36:50.539Z,99.99
2016-12-02T03:37:50.526Z,99.99
2016-12-02T03:38:50.572Z,99.99
2016-12-02T03:39:50.599Z,99.99
2016-12-02T03:40:50.710Z,99.99
2016-12-02T03:41:50.617Z,99.99
2016-12-02T03:42:50.580Z,99.99
2016-12-02T03:47:19.681Z,99.99
2016-12-02T03:48:19.629Z,99.99
2016-12-02T03:49:19.678Z,99.99
2016-12-02T03:50:19.684Z,99.99
2016-12-02T03:51:20.879Z,99.99
2016-12-02T03:52:19.736Z,99.99
2016-12-02T03:53:19.645Z,99.99
2016-12-02T03:54:19.612Z,99.99
2016-12-02T03:55:19.663Z,99.99
2016-12-02T03:56:19.708Z,99.99
2016-12-02T03:57:19.793Z,99.99
2016-12-02T03:58:19.623Z,99.99
2016-12-02T03:59:19.622Z,99.99
2016-12-02T04:00:19.645Z,99.99
2016-12-02T04:01:19.716Z,99.99
2016-12-02T04:02:19.662Z,99.99
2016-12-02T04:03:19.739Z,99.99
2016-12-02T04:04:19.642Z,99.99
2016-12-02T04:05:19.772Z,99.99
2016-12-02T04:06:19.731Z,99.99
2016-12-02T04:07:19.678Z,99.99
2016-12-02T04:08:19.672Z,99.99
2016-12-02T04:09:19.662Z,99.99
2016-12-02T04:10:19.593Z,99.99
2016-12-02T04:11:19.652Z,99.99
2016-12-02T04:12:19.711Z,99.99
2016-12-02T04:13:19.704Z,99.99
2016-12-02T04:14:19.717Z,99.99
2016-12-02T04:15:19.758Z,99.99
2016-12-02T04:16:19.696Z,99.99
2016-12-02T04:17:19.835Z,99.99
2016-12-02T04:18:19.704Z,99.99
2016-12-02T04:19:19.805Z,99.99
2016-12-02T04:20:20.489Z,99.99
2016-12-02T04:21:19.760Z,99.99
2016-12-02T04:22:19.727Z,99.99
2016-12-02T04:23:19.832Z,99.99
2016-12-02T04:24:19.692Z,99.99
2016-12-02T04:25:19.773Z,99.99
2016-12-02T04:26:19.651Z,99.99
2016-12-02T04:27:19.791Z,99.99
2016-12-02T04:28:19.716Z,99.99
2016-12-02T04:29:19.730Z,99.99
2016-12-02T04:30:29.641Z,99.99
2016-12-02T04:31:19.799Z,99.99
2016-12-02T04:32:19.717Z,99.99
2016-12-02T04:33:19.861Z,99.99
2016-12-02T04:34:19.714Z,99.99
2016-12-02T04:35:19.849Z,99.99
2016-12-02T04:36:19.741Z,99.99
2016-12-02T04:37:19.632Z,99.99
2016-12-02T04:38:19.699Z,99.99
2016-12-02T04:39:19.702Z,99.99
2016-12-02T04:40:19.770Z,99.99
2016-12-02T04:41:19.781Z,99.99
2016-12-02T04:42:19.670Z,99.99
2016-12-02T04:43:19.701Z,99.99
2016-12-02T04:44:19.653Z,99.99
2016-12-02T04:45:19.814Z,99.99
2016-12-02T04:46:19.729Z,99.99
2016-12-02T04:47:19.918Z,99.99
2016-12-02T04:48:19.700Z,99.99
2016-12-02T04:49:19.727Z,99.99
2016-12-02T04:50:19.712Z,99.99
2016-12-02T04:51:19.789Z,99.99
2016-12-02T04:52:19.690Z,99.99
2016-12-02T04:53:19.752Z,99.99
2016-12-02T04:54:19.735Z,99.99
2016-12-02T04:55:19.701Z,99.99
2016-12-02T04:56:19.840Z,99.99
2016-12-02T04:57:19.762Z,99.99
2016-12-02T04:58:19.742Z,99.99
2016-12-02T04:59:19.773Z,99.99
2016-12-02T05:00:19.736Z,99.99
2016-12-02T05:01:19.802Z,99.99
2016-12-02T05:02:19.753Z,99.99
2016-12-02T05:03:19.809Z,99.99
2016-12-02T05:04:19.743Z,99.99
2016-12-02T05:05:19.889Z,99.99
2016-12-02T05:06:19.712Z,99.99
2016-12-02T05:07:19.801Z,99.99
2016-12-02T05:08:19.851Z,99.99
2016-12-02T05:09:19.755Z,99.99
2016-12-02T05:10:19.773Z,99.99
2016-12-02T05:11:20.583Z,99.99
2016-12-02T05:12:19.718Z,99.99
2016-12-02T05:13:19.871Z,99.99
2016-12-02T05:14:19.800Z,99.99
2016-12-02T05:15:19.840Z,99.99
2016-12-02T05:16:19.755Z,99.99
2016-12-02T05:17:19.780Z,99.99
2016-12-02T05:18:19.786Z,99.99
2016-12-02T05:19:19.902Z,99.99
2016-12-02T05:20:19.796Z,99.99
2016-12-02T05:21:19.889Z,99.99
2016-12-02T05:22:19.761Z,99.99
2016-12-02T05:23:19.763Z,99.99
2016-12-02T05:24:19.771Z,99.99
2016-12-02T05:25:19.788Z,99.99
2016-12-02T05:26:19.764Z,99.99
2016-12-02T05:27:19.883Z,99.99
2016-12-02T05:28:19.723Z,99.99
2016-12-02T05:29:19.783Z,99.99
2016-12-02T05:30:19.706Z,99.99
2016-12-02T05:31:19.840Z,99.99
2016-12-02T05:32:19.881Z,99.99
2016-12-02T05:33:19.742Z,99.99
2016-12-02T05:34:19.797Z,99.99
2016-12-02T05:35:19.752Z,99.99
2016-12-02T05:36:19.812Z,99.99
2016-12-02T05:37:19.792Z,99.99
2016-12-02T05:38:19.862Z,99.99
2016-12-02T05:39:19.851Z,99.99
2016-12-02T05:40:19.742Z,99.99
2016-12-02T05:41:19.770Z,99.99
2016-12-02T05:42:19.754Z,99.99
2016-12-02T05:46:49.772Z,99.99
2016-12-02T05:47:49.729Z,99.99
2016-12-02T05:48:49.793Z,99.99
2016-12-02T05:49:49.746Z,99.99
2016-12-02T05:50:49.737Z,99.99
2016-12-02T05:51:49.758Z,99.99
2016-12-02T05:52:49.861Z,99.99
2016-12-02T05:53:49.757Z,99.99
2016-12-02T05:54:49.740Z,99.99
2016-12-02T05:55:49.876Z,99.99
2016-12-02T05:56:49.803Z,99.99
2016-12-02T05:57:49.900Z,99.99
2016-12-02T05:58:49.821Z,99.99
2016-12-02T05:59:49.700Z,99.99
2016-12-02T06:00:49.893Z,99.99
2016-12-02T06:01:49.791Z,99.99
2016-12-02T06:02:49.789Z,99.99
2016-12-02T06:03:49.795Z,99.99
2016-12-02T06:04:49.835Z,99.99
2016-12-02T06:05:49.776Z,99.99
2016-12-02T06:06:49.841Z,99.99
2016-12-02T06:07:49.861Z,99.99
2016-12-02T06:08:49.749Z,99.99
2016-12-02T06:09:49.803Z,99.99
2016-12-02T06:10:49.818Z,99.99
2016-12-02T06:11:49.750Z,99.99
2016-12-02T06:12:49.863Z,99.99
2016-12-02T06:13:49.753Z,99.99
2016-12-02T06:14:49.760Z,99.99
2016-12-02T06:15:49.798Z,99.99
2016-12-02T06:16:49.870Z,99.99
2016-12-02T06:17:49.749Z,99.99
2016-12-02T06:18:49.858Z,99.99
2016-12-02T06:19:49.734Z,99.99
2016-12-02T06:20:49.811Z,99.99
2016-12-02T06:21:49.709Z,99.99
2016-12-02T06:22:49.941Z,99.99
2016-12-02T06:23:49.685Z,99.99
2016-12-02T06:24:49.920Z,99.99
2016-12-02T06:25:49.709Z,99.99
2016-12-02T06:26:49.908Z,99.99
2016-12-02T06:27:49.783Z,99.99
2016-12-02T06:28:49.783Z,99.99
2016-12-02T06:29:49.841Z,99.99
2016-12-02T06:30:49.850Z,99.99
2016-12-02T06:31:49.820Z,99.99
2016-12-02T06:32:49.878Z,99.99
2016-12-02T06:33:49.800Z,99.99
2016-12-02T06:34:49.861Z,99.99
2016-12-02T06:35:49.867Z,99.99
2016-12-02T06:36:49.906Z,99.99
2016-12-02T06:37:50.029Z,99.99
2016-12-02T06:38:49.809Z,99.99
2016-12-02T06:39:49.818Z,99.99
2016-12-02T06:40:49.778Z,99.99
2016-12-02T06:41:49.849Z,99.99
2016-12-02T06:42:49.768Z,99.99
2016-12-02T06:43:49.852Z,99.99
2016-12-02T06:44:49.810Z,99.99
2016-12-02T06:45:49.813Z,99.99
2016-12-02T06:46:49.855Z,99.99
2016-12-02T06:47:49.808Z,99.99
2016-12-02T06:48:49.881Z,99.99
2016-12-02T06:49:49.769Z,99.99
2016-12-02T06:50:49.891Z,99.99
2016-12-02T06:51:49.831Z,99.99
2016-12-02T06:52:49.890Z,99.99
2016-12-02T06:53:49.773Z,99.99
2016-12-02T06:54:49.910Z,99.99
2016-12-02T06:55:49.935Z,99.99
2016-12-02T06:56:49.773Z,99.99
2016-12-02T06:57:49.872Z,99.99
2016-12-02T06:58:49.952Z,99.99
2016-12-02T06:59:49.841Z,99.99
2016-12-02T07:00:49.968Z,99.99
2016-12-02T07:01:49.813Z,99.99
2016-12-02T07:02:49.912Z,99.99
2016-12-02T07:03:49.793Z,99.99
2016-12-02T07:04:49.837Z,99.99
2016-12-02T07:05:49.905Z,99.99
2016-12-02T07:06:49.895Z,99.99
2016-12-02T07:07:49.927Z,99.99
2016-12-02T07:08:49.866Z,99.99
2016-12-02T07:09:49.840Z,99.99
2016-12-02T07:10:49.936Z,99.99
2016-12-02T07:11:49.871Z,99.99
2016-12-02T07:12:49.900Z,99.99
2016-12-02T07:13:49.809Z,99.99
2016-12-02T07:14:49.824Z,99.99
2016-12-02T07:15:49.826Z,99.99
2016-12-02T07:16:49.787Z,99.99
2016-12-02T07:17:49.849Z,99.99
2016-12-02T07:18:49.881Z,99.99
2016-12-02T07:19:49.880Z,99.99
2016-12-02T07:20:50.429Z,99.99
2016-12-02T07:21:49.819Z,99.99
2016-12-02T07:22:49.946Z,99.99
2016-12-02T07:23:49.834Z,99.99
2016-12-02T07:24:49.841Z,99.99
2016-12-02T07:25:49.779Z,99.99
2016-12-02T07:26:49.831Z,99.99
2016-12-02T07:27:49.860Z,99.99
2016-12-02T07:28:49.861Z,99.99
2016-12-02T07:29:49.871Z,99.99
2016-12-02T07:30:50.013Z,99.99
2016-12-02T07:31:49.861Z,99.99
2016-12-02T07:32:49.995Z,99.99
2016-12-02T07:33:49.793Z,99.99
2016-12-02T07:34:49.914Z,99.99
2016-12-02T07:35:49.856Z,99.99
2016-12-02T07:36:49.907Z,99.99
2016-12-02T07:37:49.942Z,99.99
2016-12-02T07:38:49.851Z,99.99
2016-12-02T07:39:49.854Z,99.99
2016-12-02T07:40:49.962Z,99.99
2016-12-02T07:41:49.878Z,99.99
2016-12-02T07:42:49.961Z,99.99
2016-12-02T07:43:49.827Z,99.99
2016-12-02T07:44:49.884Z,99.99
2016-12-02T07:45:49.905Z,99.99
2016-12-02T07:46:49.914Z,99.99
2016-12-02T07:47:49.866Z,99.99
2016-12-02T07:48:49.917Z,99.99
2016-12-02T07:49:50.396Z,99.99
2016-12-02T07:50:49.928Z,99.99
2016-12-02T07:51:49.850Z,99.99
2016-12-02T07:52:49.913Z,99.99
2016-12-02T07:53:49.848Z,99.99
2016-12-02T07:54:49.833Z,99.99
2016-12-02T07:55:49.920Z,99.99
2016-12-02T07:56:49.874Z,99.99
2016-12-02T07:57:49.825Z,99.99
2016-12-02T07:58:49.918Z,99.99
2016-12-02T07:59:49.876Z,99.99
2016-12-02T08:00:49.861Z,99.99
2016-12-02T08:01:49.829Z,99.99
2016-12-02T08:02:49.891Z,99.99
2016-12-02T08:03:49.846Z,99.99
2016-12-02T08:04:49.894Z,99.99
2016-12-02T08:05:49.851Z,99.99
2016-12-02T08:06:49.834Z,99.99
2016-12-02T08:07:49.937Z,99.99
2016-12-02T08:08:49.889Z,99.99
2016-12-02T08:09:49.865Z,99.99
2016-12-02T08:10:50.233Z,99.99
2016-12-02T08:11:50.236Z,99.99
2016-12-02T08:12:49.904Z,99.99
2016-12-02T08:13:50.290Z,99.99
2016-12-02T08:14:50.011Z,99.99
2016-12-02T08:15:50.019Z,99.99
2016-12-02T08:16:49.908Z,99.99
2016-12-02T08:17:50.168Z,99.99
2016-12-02T08:18:50.205Z,99.99
2016-12-02T08:19:50.288Z,99.99
2016-12-02T08:20:50.362Z,99.99
2016-12-02T08:21:49.970Z,99.99
2016-12-02T08:22:49.972Z,99.99
2016-12-02T08:23:50.359Z,99.99
2016-12-02T08:24:49.945Z,99.99
2016-12-02T08:25:49.993Z,99.99
2016-12-02T08:26:49.975Z,99.99
2016-12-02T08:27:50.064Z,99.99
2016-12-02T08:28:49.915Z,99.99
2016-12-02T08:29:50.049Z,99.99
2016-12-02T08:30:50.010Z,99.99
2016-12-02T08:31:50.166Z,99.99
2016-12-02T08:32:49.946Z,99.99
2016-12-02T08:33:49.936Z,99.99
2016-12-02T08:34:49.946Z,99.99
2016-12-02T08:35:49.925Z,99.99
2016-12-02T08:36:49.826Z,99.99
2016-12-02T08:37:50.663Z,99.99
2016-12-02T08:38:49.998Z,99.99
2016-12-02T08:39:49.825Z,99.99
2016-12-02T08:40:49.998Z,99.99
2016-12-02T08:41:49.910Z,99.99
2016-12-02T08:42:49.885Z,99.99
2016-12-02T08:43:49.903Z,99.99
2016-12-02T08:44:50.015Z,99.99
2016-12-02T08:45:50.077Z,99.99
2016-12-02T08:46:49.951Z,99.99
2016-12-02T08:47:49.938Z,99.99
2016-12-02T08:48:49.914Z,99.99
2016-12-02T08:49:49.994Z,99.99
2016-12-02T08:50:50.046Z,99.99
2016-12-02T08:51:49.877Z,99.99
2016-12-02T08:52:49.918Z,99.99
2016-12-02T08:53:49.915Z,99.99
2016-12-02T08:54:49.941Z,99.99
2016-12-02T08:55:49.886Z,99.99
2016-12-02T08:56:50.025Z,99.99
2016-12-02T08:57:49.995Z,99.99
2016-12-02T08:58:50.009Z,99.99
2016-12-02T08:59:49.923Z,99.99
2016-12-02T09:00:49.958Z,99.99
2016-12-02T09:01:49.923Z,99.99
2016-12-02T09:02:49.948Z,99.99
2016-12-02T09:03:49.971Z,99.99
2016-12-02T09:04:49.936Z,99.99
2016-12-02T09:05:49.908Z,99.99
2016-12-02T09:06:49.976Z,99.99
2016-12-02T09:07:50.015Z,99.99
2016-12-02T09:08:50.036Z,99.99
2016-12-02T09:09:50.045Z,99.99
2016-12-02T09:10:49.995Z,99.99
2016-12-02T09:11:49.995Z,99.99
2016-12-02T09:12:50.218Z,99.99
2016-12-02T09:13:50.026Z,99.99
2016-12-02T09:14:50.054Z,99.99
2016-12-02T09:15:49.925Z,99.99
2016-12-02T09:16:51.348Z,99.99
2016-12-02T09:17:50.095Z,99.99
2016-12-02T09:18:50.046Z,99.99
2016-12-02T09:19:50.136Z,99.99
2016-12-02T09:20:50.074Z,99.99
2016-12-02T09:21:50.105Z,99.99
2016-12-02T09:22:50.006Z,99.99
2016-12-02T09:23:49.926Z,99.99
2016-12-02T09:24:49.996Z,99.99
2016-12-02T09:25:49.945Z,99.99
2016-12-02T09:26:49.969Z,99.99
2016-12-02T09:27:50.008Z,99.99
2016-12-02T09:28:49.947Z,99.99
2016-12-02T09:29:49.943Z,99.99
2016-12-02T09:30:50.059Z,99.99
2016-12-02T09:31:50.065Z,99.99
2016-12-02T09:32:50.142Z,99.99
2016-12-02T09:33:50.047Z,99.99
2016-12-02T09:34:49.980Z,99.99
2016-12-02T09:35:49.990Z,99.99
2016-12-02T09:36:50.118Z,99.99
2016-12-02T09:37:50.044Z,99.99
2016-12-02T09:38:49.979Z,99.99
2016-12-02T09:39:49.967Z,99.99
2016-12-02T09:40:50.022Z,99.99
2016-12-02T09:41:50.021Z,99.99
2016-12-02T09:42:50.016Z,99.99
2016-12-02T09:43:50.065Z,99.99
2016-12-02T09:48:18.819Z,99.69
2016-12-02T09:49:18.759Z,99.79
2016-12-02T09:50:18.926Z,99.88
2016-12-02T09:51:18.796Z,99.99
2016-12-02T09:52:18.858Z,99.99
2016-12-02T09:53:18.829Z,99.99
2016-12-02T09:54:18.875Z,99.99
2016-12-02T09:55:18.861Z,99.99
2016-12-02T09:56:19.439Z,99.99
2016-12-02T09:57:18.849Z,99.99
2016-12-02T09:58:18.826Z,99.98
2016-12-02T09:59:18.843Z,99.99
2016-12-02T10:00:19.001Z,99.99
2016-12-02T10:01:18.827Z,99.99
2016-12-02T10:02:19.076Z,99.99
2016-12-02T10:03:19.039Z,99.99
2016-12-02T10:04:18.900Z,99.99
2016-12-02T10:05:18.810Z,99.99
2016-12-02T10:06:18.848Z,99.99
2016-12-02T10:07:18.782Z,99.99
2016-12-02T10:08:19.019Z,99.99
2016-12-02T10:09:18.909Z,99.99
2016-12-02T10:10:18.846Z,99.99
2016-12-02T10:11:18.843Z,99.99
2016-12-02T10:12:18.866Z,99.93
2016-12-02T10:13:18.913Z,99.36
2016-12-02T10:14:18.849Z,99.46
2016-12-02T10:15:18.912Z,99.84
2016-12-02T10:16:19.013Z,99.36
2016-12-02T10:17:18.796Z,99.65
2016-12-02T10:18:18.867Z,99.65
2016-12-02T10:19:18.869Z,99.46
2016-12-02T10:20:18.826Z,99.84
2016-12-02T10:21:18.803Z,99.84
2016-12-02T10:22:18.868Z,99.84
2016-12-02T10:23:18.968Z,99.99
2016-12-02T10:24:18.877Z,99.99
2016-12-02T10:25:18.760Z,99.99
2016-12-02T10:26:18.901Z,99.08
2016-12-02T10:27:18.918Z,99.36
2016-12-02T10:28:18.972Z,99.17
2016-12-02T10:29:18.853Z,99.17
2016-12-02T10:30:18.896Z,98.79
2016-12-02T10:31:18.915Z,98.5
2016-12-02T10:32:18.864Z,97.74
2016-12-02T10:33:18.855Z,98.41
2016-12-02T10:34:18.972Z,97.84
2016-12-02T10:35:18.883Z,97.89
2016-12-02T10:36:18.972Z,97.51
2016-12-02T10:37:18.859Z,97.89
2016-12-02T10:38:19.001Z,98.18
2016-12-02T10:39:18.868Z,97.41
2016-12-02T10:40:18.942Z,97.31
2016-12-02T10:41:19.180Z,97.6
2016-12-02T10:42:18.942Z,97.13
2016-12-02T10:43:19.320Z,97.13
2016-12-02T10:44:19.590Z,96.17
2016-12-02T10:45:19.477Z,95.7
2016-12-02T10:46:19.266Z,95.36
2016-12-02T10:47:19.345Z,95.36
2016-12-02T10:48:19.577Z,95.08
2016-12-02T10:49:19.557Z,95.17
2016-12-02T10:50:19.261Z,94.7
2016-12-02T10:51:19.450Z,94.79
2016-12-02T10:52:19.721Z,95.08
2016-12-02T10:53:19.508Z,94.51
2016-12-02T10:54:19.543Z,95.27
2016-12-02T10:55:19.629Z,94.32
2016-12-02T10:56:18.897Z,95.75
2016-12-02T10:57:18.846Z,94.93
2016-12-02T10:58:18.986Z,95.12
2016-12-02T10:59:18.812Z,95.7
2016-12-02T11:00:18.980Z,95.41
2016-12-02T11:01:18.893Z,96.17
2016-12-02T11:02:18.965Z,96.94
2016-12-02T11:03:18.946Z,96.75
2016-12-02T11:04:18.931Z,97.41
2016-12-02T11:05:18.942Z,97.31
2016-12-02T11:06:19.002Z,98.03
2016-12-02T11:07:18.825Z,97.84
2016-12-02T11:08:19.044Z,97.89
2016-12-02T11:09:18.830Z,97.74
2016-12-02T11:10:18.983Z,98.6
2016-12-02T11:11:18.871Z,98.69
2016-12-02T11:12:19.078Z,99.08
2016-12-02T11:13:19.071Z,99.17
2016-12-02T11:14:19.024Z,99.36
2016-12-02T11:15:18.903Z,99.46
2016-12-02T11:16:19.037Z,99.55
2016-12-02T11:17:18.851Z,98.22
2016-12-02T11:18:19.063Z,98.13
2016-12-02T11:19:18.896Z,97.17
2016-12-02T11:20:18.903Z,96.75
2016-12-02T11:21:18.864Z,95.98
2016-12-02T11:22:18.983Z,95.6
2016-12-02T11:23:19.548Z,95.79
2016-12-02T11:24:18.981Z,96.27
2016-12-02T11:25:19.088Z,95.03
2016-12-02T11:26:19.007Z,95.12
2016-12-02T11:27:18.961Z,94.6
2016-12-02T11:28:19.080Z,94.13
2016-12-02T11:29:18.961Z,94.6
2016-12-02T11:30:19.074Z,94.46
2016-12-02T11:31:18.863Z,94.65
2016-12-02T11:32:18.922Z,93.7
2016-12-02T11:33:19.163Z,93.41
2016-12-02T11:34:18.948Z,94.27
2016-12-02T11:35:18.989Z,94.56
2016-12-02T11:36:19.006Z,94.56
2016-12-02T11:37:18.953Z,95.03
2016-12-02T11:38:19.052Z,93.7
2016-12-02T11:39:18.908Z,93.7
2016-12-02T11:40:18.904Z,94.17
2016-12-02T11:41:18.953Z,93.13
2016-12-02T11:42:18.920Z,92.94
2016-12-02T11:43:18.998Z,92.32
2016-12-02T11:44:19.004Z,91.17
2016-12-02T11:45:18.884Z,90.31
2016-12-02T11:46:18.943Z,90.03
2016-12-02T11:47:18.901Z,90.98
2016-12-02T11:48:19.064Z,91.08
2016-12-02T11:49:18.955Z,90.6
2016-12-02T11:50:18.972Z,92.13
2016-12-02T11:51:18.962Z,91.36
2016-12-02T11:52:19.069Z,91.17
2016-12-02T11:53:18.964Z,90.5
2016-12-02T11:54:18.982Z,90.6
2016-12-02T11:55:18.863Z,91.17
2016-12-02T11:56:18.939Z,90.12
2016-12-02T11:57:18.967Z,89.46
2016-12-02T11:58:19.053Z,90.79
2016-12-02T11:59:18.886Z,89.65
2016-12-02T12:00:19.004Z,89.26
2016-12-02T12:01:18.938Z,89.07
2016-12-02T12:02:18.913Z,89.07
2016-12-02T12:03:18.998Z,90.5
2016-12-02T12:04:19.075Z,90.22
2016-12-02T12:05:19.010Z,89.26
2016-12-02T12:06:19.144Z,90.12
2016-12-02T12:07:19.002Z,89.84
2016-12-02T12:08:19.125Z,89.07
2016-12-02T12:09:19.082Z,88.84
2016-12-02T12:10:19.019Z,87.79
2016-12-02T12:11:19.066Z,87.4
2016-12-02T12:12:19.007Z,86.45
2016-12-02T12:13:19.094Z,86.83
2016-12-02T12:14:19.144Z,88.26
2016-12-02T12:15:19.107Z,87.6
2016-12-02T12:16:19.024Z,87.27
2016-12-02T12:17:19.015Z,87.36
2016-12-02T12:18:20.574Z,88.03
2016-12-02T12:19:19.037Z,88.22
2016-12-02T12:20:19.000Z,88.98
2016-12-02T12:21:19.004Z,88.98
2016-12-02T12:22:19.179Z,88.18
2016-12-02T12:23:19.014Z,87.79
2016-12-02T12:24:19.044Z,87.41
2016-12-02T12:25:19.085Z,86.36
2016-12-02T12:26:18.977Z,86.18
2016-12-02T12:27:18.978Z,85.32
2016-12-02T12:28:19.156Z,86.08
2016-12-02T12:29:19.020Z,84.36
2016-12-02T12:30:19.238Z,84.75
2016-12-02T12:31:18.966Z,84.94
2016-12-02T12:32:19.022Z,84.52
2016-12-02T12:33:19.070Z,84.52
2016-12-02T12:34:19.183Z,83.65
2016-12-02T12:35:19.036Z,82.04
2016-12-02T12:36:18.965Z,81.95
2016-12-02T12:37:19.029Z,81.66
2016-12-02T12:38:19.054Z,81.66
2016-12-02T12:39:19.115Z,81.37
2016-12-02T12:40:19.044Z,81.18
2016-12-02T12:41:19.772Z,81.66
2016-12-02T12:42:19.214Z,81.09
2016-12-02T12:43:19.029Z,81.18
2016-12-02T12:44:19.213Z,81.28
2016-12-02T12:45:18.953Z,81.66
2016-12-02T12:46:19.050Z,81.37
2016-12-02T12:47:18.984Z,82.7
2016-12-02T12:48:19.077Z,82.99
2016-12-02T12:49:19.727Z,82.7
2016-12-02T12:50:19.097Z,83.18
2016-12-02T12:51:19.034Z,83.18
2016-12-02T12:52:19.164Z,82.99
2016-12-02T12:53:19.052Z,82.04
2016-12-02T12:54:19.179Z,81.85
2016-12-02T12:55:19.140Z,82.14
2016-12-02T12:56:19.183Z,82.27
2016-12-02T12:57:19.129Z,80.84
2016-12-02T12:58:19.152Z,81.79
2016-12-02T12:59:19.329Z,82.37
2016-12-02T13:00:19.017Z,81.98
2016-12-02T13:01:19.076Z,82.27
2016-12-02T13:02:19.129Z,82.08
2016-12-02T13:03:19.090Z,81.23
2016-12-02T13:04:19.287Z,81.41